createdAt,value
2022-12-29T00:02:08.039Z,9.57
2022-12-29T00:04:53.251Z,7.47
2022-12-29T00:07:37.139Z,10.33
2022-12-29T00:10:20.971Z,9.57
2022-12-29T00:13:22.152Z,7.00
2022-12-29T00:16:09.482Z,6.80
2022-12-29T00:18:53.299Z,24.80
2022-12-29T00:21:55.997Z,18.67
2022-12-29T00:24:57.402Z,8.90
2022-12-29T00:28:04.764Z,7.30
2022-12-29T00:31:08.316Z,9.57
2022-12-29T00:34:09.991Z,6.53
2022-12-29T00:36:55.167Z,8.60
2022-12-29T00:39:56.596Z,10.40
2022-12-29T00:42:58.031Z,6.03
2022-12-29T00:45:43.274Z,5.87
2022-12-29T00:48:44.707Z,9.23
2022-12-29T00:51:28.522Z,6.17
2022-12-29T00:54:13.844Z,7.87
2022-12-29T00:56:58.378Z,6.57
2022-12-29T00:59:43.621Z,10.53
2022-12-29T01:02:27.565Z,10.27
2022-12-29T01:05:11.462Z,10.70
2022-12-29T01:07:55.414Z,13.67
2022-12-29T01:10:39.582Z,14.10
2022-12-29T01:13:24.478Z,11.40
2022-12-29T01:16:09.019Z,14.63
2022-12-29T01:18:52.989Z,8.63
2022-12-29T01:21:38.938Z,6.93
2022-12-29T01:24:23.200Z,8.33
2022-12-29T01:27:08.357Z,7.10
2022-12-29T01:29:52.099Z,9.23
2022-12-29T01:32:35.799Z,11.50
2022-12-29T01:35:19.659Z,8.30
2022-12-29T01:38:03.455Z,5.70
2022-12-29T01:40:48.676Z,10.63
2022-12-29T01:43:43.851Z,8.43
2022-12-29T01:46:30.563Z,4.60
2022-12-29T01:49:18.221Z,6.23
2022-12-29T01:52:07.454Z,8.20
2022-12-29T01:54:54.783Z,9.43
2022-12-29T01:57:43.705Z,8.47
2022-12-29T02:00:29.093Z,6.37
2022-12-29T02:03:14.149Z,7.57
2022-12-29T02:06:04.553Z,6.13
2022-12-29T02:08:49.392Z,6.80
2022-12-29T02:11:34.110Z,5.70
2022-12-29T02:14:20.999Z,5.17
2022-12-29T02:17:13.824Z,7.27
2022-12-29T02:20:25.344Z,6.63
2022-12-29T02:23:31.826Z,11.40
2022-12-29T02:26:32.029Z,11.73
2022-12-29T02:29:40.072Z,14.77
2022-12-29T02:32:33.650Z,12.27
2022-12-29T02:35:32.973Z,15.23
2022-12-29T02:38:22.198Z,15.30
2022-12-29T02:41:15.354Z,8.67
2022-12-29T02:44:06.151Z,5.73
2022-12-29T02:46:56.095Z,6.47
2022-12-29T02:49:50.527Z,5.33
2022-12-29T02:52:39.033Z,8.27
2022-12-29T02:55:21.921Z,6.17
2022-12-29T02:58:18.405Z,9.17
2022-12-29T03:01:19.154Z,5.93
2022-12-29T03:04:20.529Z,5.50
2022-12-29T03:07:15.250Z,6.50
2022-12-29T03:10:06.750Z,6.13
2022-12-29T03:13:16.387Z,6.30
2022-12-29T03:16:13.372Z,6.60
2022-12-29T03:19:02.728Z,9.57
2022-12-29T03:22:08.220Z,7.03
2022-12-29T03:25:03.543Z,9.57
2022-12-29T03:27:52.737Z,8.63
2022-12-29T03:30:39.722Z,7.93
2022-12-29T03:33:26.555Z,13.00
2022-12-29T03:36:26.973Z,8.33
2022-12-29T03:39:13.296Z,10.87
2022-12-29T03:42:03.446Z,11.43
2022-12-29T03:44:48.539Z,11.43
2022-12-29T03:47:33.772Z,9.63
2022-12-29T03:50:18.396Z,12.40
2022-12-29T03:53:02.334Z,9.23
2022-12-29T03:55:46.176Z,13.47
2022-12-29T03:58:32.036Z,9.27
2022-12-29T04:01:22.150Z,25.93
2022-12-29T04:04:06.360Z,12.27
2022-12-29T04:06:51.205Z,15.13
2022-12-29T04:09:35.085Z,11.00
2022-12-29T04:12:19.951Z,9.87
2022-12-29T04:15:06.682Z,9.70
2022-12-29T04:17:51.343Z,7.30
2022-12-29T04:20:52.693Z,8.13
2022-12-29T04:23:41.387Z,8.43
2022-12-29T04:26:27.061Z,9.13
2022-12-29T04:29:25.359Z,10.23
2022-12-29T04:32:29.363Z,9.80
2022-12-29T04:35:13.636Z,7.27
2022-12-29T04:37:57.453Z,10.50
2022-12-29T04:40:41.775Z,7.03
2022-12-29T04:43:27.051Z,8.30
2022-12-29T04:46:33.817Z,9.00
2022-12-29T04:49:23.852Z,10.10
2022-12-29T04:52:25.077Z,12.40
2022-12-29T04:55:10.525Z,8.43
2022-12-29T04:57:54.426Z,7.93
2022-12-29T05:00:38.362Z,8.57
2022-12-29T05:03:22.308Z,6.40
2022-12-29T05:06:09.156Z,8.50
2022-12-29T05:08:53.041Z,5.53
2022-12-29T05:11:37.548Z,10.23
2022-12-29T05:14:21.347Z,7.80
2022-12-29T05:17:05.168Z,10.70
2022-12-29T05:19:49.022Z,6.50
2022-12-29T05:22:34.305Z,6.73
2022-12-29T05:25:19.757Z,7.33
2022-12-29T05:28:13.547Z,7.97
2022-12-29T05:31:02.871Z,7.33
2022-12-29T05:33:47.598Z,6.13
2022-12-29T05:36:37.468Z,6.63
2022-12-29T05:39:24.558Z,7.87
2022-12-29T05:42:12.932Z,10.77
2022-12-29T05:45:31.991Z,20.43
2022-12-29T05:48:33.006Z,14.57
2022-12-29T05:51:41.651Z,8.47
2022-12-29T05:54:26.918Z,6.70
2022-12-29T05:57:11.306Z,12.43
2022-12-29T05:59:56.293Z,13.33
2022-12-29T06:02:40.290Z,9.90
2022-12-29T06:05:24.887Z,11.13
2022-12-29T06:08:08.760Z,9.00
2022-12-29T06:10:54.078Z,14.00
2022-12-29T06:13:38.056Z,17.13
2022-12-29T06:16:22.048Z,10.67
2022-12-29T06:19:08.272Z,10.83
2022-12-29T06:21:53.672Z,9.27
2022-12-29T06:24:37.905Z,7.80
2022-12-29T06:27:23.453Z,11.77
2022-12-29T06:30:11.258Z,13.90
2022-12-29T06:32:56.949Z,8.47
2022-12-29T06:35:42.298Z,13.93
2022-12-29T06:38:26.169Z,11.67
2022-12-29T06:41:10.713Z,12.80
2022-12-29T06:44:14.698Z,20.33
2022-12-29T06:47:07.116Z,18.40
2022-12-29T06:49:51.201Z,15.37
2022-12-29T06:52:35.188Z,18.40
2022-12-29T06:55:19.205Z,29.23
2022-12-29T06:58:03.460Z,42.23
2022-12-29T07:00:49.398Z,64.97
2022-12-29T07:03:33.580Z,28.13
2022-12-29T07:06:17.605Z,26.57
2022-12-29T07:09:01.649Z,31.23
2022-12-29T07:11:45.651Z,28.07
2022-12-29T07:14:29.432Z,28.03
2022-12-29T07:17:14.559Z,26.13
2022-12-29T07:19:58.555Z,30.93
2022-12-29T07:22:42.349Z,21.57
2022-12-29T07:25:26.289Z,19.53
2022-12-29T07:28:10.214Z,12.50
2022-12-29T07:30:54.040Z,13.70
2022-12-29T07:33:39.257Z,8.20
2022-12-29T07:36:23.291Z,8.10
2022-12-29T07:39:07.030Z,13.50
2022-12-29T07:41:51.267Z,9.13
2022-12-29T07:44:37.674Z,10.80
2022-12-29T07:47:36.053Z,10.47
2022-12-29T07:50:21.458Z,9.03
2022-12-29T07:53:06.030Z,4.40
2022-12-29T07:55:50.128Z,8.87
2022-12-29T07:58:34.196Z,8.37
2022-12-29T08:01:18.432Z,6.43
2022-12-29T08:04:02.703Z,12.93
2022-12-29T08:06:48.275Z,9.67
2022-12-29T08:09:32.313Z,6.87
2022-12-29T08:12:16.195Z,9.40
2022-12-29T08:15:00.016Z,5.70
2022-12-29T08:17:43.970Z,7.40
2022-12-29T08:20:27.867Z,8.03
2022-12-29T08:23:13.088Z,8.73
2022-12-29T08:26:00.061Z,5.83
2022-12-29T08:28:43.745Z,6.97
2022-12-29T08:31:27.638Z,8.67
2022-12-29T08:34:11.511Z,6.37
2022-12-29T08:36:55.292Z,9.77
2022-12-29T08:39:40.523Z,6.40
2022-12-29T08:42:24.415Z,10.93
2022-12-29T08:45:09.984Z,9.00
2022-12-29T08:47:53.865Z,7.73
2022-12-29T08:50:37.755Z,10.10
2022-12-29T08:53:21.868Z,7.83
2022-12-29T08:56:08.257Z,12.67
2022-12-29T08:59:01.034Z,13.93
2022-12-29T09:01:47.619Z,6.67
2022-12-29T09:04:31.566Z,9.63
2022-12-29T09:07:15.495Z,5.67
2022-12-29T09:09:59.299Z,7.23
2022-12-29T09:12:44.433Z,6.57
2022-12-29T09:15:28.426Z,5.77
2022-12-29T09:18:19.057Z,14.40
2022-12-29T09:21:07.977Z,11.83
2022-12-29T09:23:51.719Z,10.93
2022-12-29T09:26:35.495Z,6.10
2022-12-29T09:29:20.700Z,10.37
2022-12-29T09:32:07.663Z,10.07
2022-12-29T09:34:51.697Z,12.43
2022-12-29T09:37:35.610Z,10.27
2022-12-29T09:40:27.774Z,11.37
2022-12-29T09:43:36.659Z,5.80
2022-12-29T09:46:27.730Z,6.20
2022-12-29T09:49:23.447Z,9.70
2022-12-29T09:52:13.558Z,12.97
2022-12-29T09:55:02.901Z,10.30
2022-12-29T09:57:55.080Z,8.90
2022-12-29T10:00:43.226Z,8.53
2022-12-29T10:03:38.908Z,11.13
2022-12-29T10:06:28.890Z,15.80
2022-12-29T10:09:21.934Z,11.73
2022-12-29T10:12:20.339Z,9.93
2022-12-29T10:15:14.485Z,11.60
2022-12-29T10:18:10.985Z,12.87
2022-12-29T10:21:01.361Z,10.27
2022-12-29T10:23:47.758Z,13.43
2022-12-29T10:26:38.257Z,12.10
2022-12-29T10:29:24.377Z,8.20
2022-12-29T10:32:17.036Z,17.53
2022-12-29T10:35:05.683Z,13.77
2022-12-29T10:38:00.300Z,27.03
2022-12-29T10:40:51.299Z,12.13
2022-12-29T10:43:43.361Z,10.23
2022-12-29T10:46:31.643Z,14.57
2022-12-29T10:49:22.277Z,15.63
2022-12-29T10:52:07.226Z,14.70
2022-12-29T10:54:58.161Z,17.17
2022-12-29T10:57:45.963Z,13.73
2022-12-29T11:00:29.679Z,13.30
2022-12-29T11:03:37.051Z,13.37
2022-12-29T11:06:26.314Z,16.30
2022-12-29T11:09:15.042Z,38.13
2022-12-29T11:12:00.705Z,19.30
2022-12-29T11:14:44.629Z,15.63
2022-12-29T11:17:28.517Z,15.20
2022-12-29T11:20:33.263Z,15.40
2022-12-29T11:23:26.649Z,13.53
2022-12-29T11:26:25.337Z,14.10
2022-12-29T11:29:25.334Z,14.37
2022-12-29T11:32:14.927Z,13.10
2022-12-29T11:34:59.763Z,13.50
2022-12-29T11:37:43.732Z,15.97
2022-12-29T11:40:28.311Z,13.73
2022-12-29T11:43:30.881Z,14.57
2022-12-29T11:46:19.144Z,14.67
2022-12-29T11:49:05.339Z,13.90
2022-12-29T11:51:51.189Z,13.50
2022-12-29T11:54:39.093Z,11.83
2022-12-29T11:57:26.007Z,12.33
2022-12-29T12:00:18.513Z,13.97
2022-12-29T12:03:06.912Z,14.77
2022-12-29T12:05:55.386Z,19.03
2022-12-29T12:08:45.257Z,14.33
2022-12-29T12:11:37.335Z,11.87
2022-12-29T12:14:25.976Z,13.10
2022-12-29T12:17:39.413Z,12.70
2022-12-29T12:20:31.002Z,13.30
2022-12-29T12:23:31.268Z,12.30
2022-12-29T12:26:18.508Z,15.03
2022-12-29T12:29:10.856Z,17.10
2022-12-29T12:31:59.507Z,15.37
2022-12-29T12:34:45.364Z,11.60
2022-12-29T12:38:01.513Z,15.13
2022-12-29T12:41:09.983Z,11.77
2022-12-29T12:44:02.646Z,12.47
2022-12-29T12:47:03.708Z,13.77
2022-12-29T12:50:24.144Z,11.17
2022-12-29T12:53:35.891Z,14.10
2022-12-29T12:56:49.792Z,12.57
2022-12-29T12:59:43.353Z,10.27
2022-12-29T13:02:42.276Z,18.07
2022-12-29T13:05:47.482Z,12.30
2022-12-29T13:08:50.045Z,14.40
2022-12-29T13:11:50.343Z,13.73
2022-12-29T13:14:45.006Z,12.70
2022-12-29T13:17:37.432Z,12.90
2022-12-29T13:20:30.586Z,16.90
2022-12-29T13:23:24.049Z,19.50
2022-12-29T13:26:18.946Z,22.80
2022-12-29T13:29:12.573Z,17.73
2022-12-29T13:32:05.163Z,16.73
2022-12-29T13:34:55.765Z,13.93
2022-12-29T13:37:48.146Z,18.60
2022-12-29T13:40:36.741Z,15.57
2022-12-29T13:43:24.482Z,21.07
2022-12-29T13:46:12.359Z,24.73
2022-12-29T13:49:00.913Z,16.97
2022-12-29T13:51:49.934Z,20.90
2022-12-29T13:54:44.134Z,18.83
2022-12-29T13:57:39.737Z,19.13
2022-12-29T14:00:27.896Z,21.37
2022-12-29T14:03:50.580Z,16.63
2022-12-29T14:06:41.441Z,19.17
2022-12-29T14:09:48.761Z,27.70
2022-12-29T14:12:40.590Z,17.57
2022-12-29T14:15:28.432Z,16.27
2022-12-29T14:18:16.562Z,18.37
2022-12-29T14:21:04.732Z,23.50
2022-12-29T14:23:51.002Z,20.20
2022-12-29T14:26:38.092Z,35.47
2022-12-29T14:29:47.637Z,53.10
2022-12-29T14:32:41.906Z,35.77
2022-12-29T14:35:42.013Z,34.60
2022-12-29T14:38:28.549Z,34.17
2022-12-29T14:41:26.655Z,36.13
2022-12-29T14:44:20.654Z,24.67
2022-12-29T14:47:10.073Z,34.90
2022-12-29T14:49:57.055Z,41.90
2022-12-29T14:52:49.162Z,37.00
2022-12-29T14:55:40.821Z,21.30
2022-12-29T14:58:30.001Z,52.60
2022-12-29T15:01:22.448Z,38.20
2022-12-29T15:04:17.238Z,24.30
2022-12-29T15:07:04.618Z,29.07
2022-12-29T15:09:53.118Z,28.80
2022-12-29T15:12:41.562Z,78.10
2022-12-29T15:15:27.873Z,28.03
2022-12-29T15:18:17.239Z,31.80
2022-12-29T15:21:03.288Z,28.10
2022-12-29T15:23:49.089Z,33.00
2022-12-29T15:26:41.027Z,31.07
2022-12-29T15:29:34.331Z,29.53
2022-12-29T15:32:22.005Z,33.30
2022-12-29T15:35:25.828Z,34.20
2022-12-29T15:38:17.068Z,29.23
2022-12-29T15:41:06.909Z,25.27
2022-12-29T15:44:01.656Z,23.53
2022-12-29T15:46:45.671Z,22.30
2022-12-29T15:49:32.478Z,23.33
2022-12-29T15:52:21.338Z,19.70
2022-12-29T15:55:05.742Z,18.70
2022-12-29T15:57:50.909Z,17.03
2022-12-29T16:00:38.325Z,13.13
2022-12-29T16:03:24.728Z,21.67
2022-12-29T16:06:27.746Z,18.63
2022-12-29T16:09:18.245Z,29.00
2022-12-29T16:12:05.838Z,25.50
2022-12-29T16:14:55.718Z,21.57
2022-12-29T16:17:48.635Z,25.83
2022-12-29T16:20:42.264Z,27.23
2022-12-29T16:23:29.049Z,24.13
2022-12-29T16:26:18.214Z,31.60
2022-12-29T16:29:04.044Z,34.80
2022-12-29T16:32:01.504Z,32.57
2022-12-29T16:34:46.417Z,31.60
2022-12-29T16:37:32.758Z,29.17
2022-12-29T16:40:32.722Z,26.37
2022-12-29T16:43:23.916Z,28.13
2022-12-29T16:46:27.397Z,30.80
2022-12-29T16:49:21.617Z,25.07
2022-12-29T16:52:14.938Z,21.90
2022-12-29T16:55:02.100Z,21.43
2022-12-29T16:57:50.179Z,28.23
2022-12-29T17:00:38.373Z,24.13
2022-12-29T17:03:22.289Z,18.70
2022-12-29T17:06:07.987Z,17.47
2022-12-29T17:08:53.315Z,19.63
2022-12-29T17:12:00.368Z,21.33
2022-12-29T17:14:48.463Z,27.03
2022-12-29T17:17:35.160Z,21.37
2022-12-29T17:20:22.294Z,22.17
2022-12-29T17:23:24.352Z,23.23
2022-12-29T17:26:10.623Z,31.63
2022-12-29T17:28:54.486Z,28.07
2022-12-29T17:31:38.409Z,27.60
2022-12-29T17:34:23.088Z,41.53
2022-12-29T17:37:23.002Z,38.53
2022-12-29T17:40:12.132Z,44.03
2022-12-29T17:42:58.928Z,29.57
2022-12-29T17:45:43.872Z,43.57
2022-12-29T17:48:27.849Z,33.10
2022-12-29T17:51:13.458Z,40.17
2022-12-29T17:53:57.331Z,40.70
2022-12-29T17:56:42.751Z,34.27
2022-12-29T17:59:26.563Z,48.27
2022-12-29T18:02:26.270Z,52.33
2022-12-29T18:05:19.013Z,63.77
2022-12-29T18:08:02.790Z,57.60
2022-12-29T18:10:47.601Z,64.20
2022-12-29T18:13:43.937Z,67.07
2022-12-29T18:16:29.613Z,63.53
2022-12-29T18:19:13.374Z,48.97
2022-12-29T18:21:57.223Z,41.50
2022-12-29T18:24:41.068Z,38.13
2022-12-29T18:27:24.889Z,31.23
2022-12-29T18:30:11.049Z,34.30
2022-12-29T18:32:54.869Z,36.27
2022-12-29T18:35:41.699Z,35.77
2022-12-29T18:38:25.920Z,32.23
2022-12-29T18:41:17.309Z,29.90
2022-12-29T18:44:01.392Z,39.90
2022-12-29T18:46:46.626Z,45.57
2022-12-29T18:49:31.287Z,67.47
2022-12-29T18:52:15.122Z,48.67
2022-12-29T18:54:58.916Z,40.43
2022-12-29T18:57:42.995Z,39.63
2022-12-29T19:00:26.835Z,38.20
2022-12-29T19:03:13.838Z,37.97
2022-12-29T19:05:59.196Z,36.40
2022-12-29T19:08:43.526Z,34.00
2022-12-29T19:11:27.337Z,34.40
2022-12-29T19:14:17.645Z,52.33
2022-12-29T19:17:01.361Z,35.30
2022-12-29T19:19:46.699Z,30.93
2022-12-29T19:22:30.590Z,44.73
2022-12-29T19:25:14.426Z,29.73
2022-12-29T19:27:58.856Z,27.07
2022-12-29T19:30:42.566Z,23.70
2022-12-29T19:33:26.844Z,28.20
2022-12-29T19:36:15.622Z,31.90
2022-12-29T19:38:59.721Z,27.97
2022-12-29T19:41:43.738Z,27.73
2022-12-29T19:44:27.555Z,25.77
2022-12-29T19:47:11.467Z,29.23
2022-12-29T19:49:55.467Z,28.70
2022-12-29T19:52:40.599Z,23.60
2022-12-29T19:55:24.654Z,26.40
2022-12-29T19:58:08.514Z,32.60
2022-12-29T20:00:52.347Z,34.00
2022-12-29T20:03:36.583Z,35.00
2022-12-29T20:06:20.971Z,46.30
2022-12-29T20:09:06.393Z,25.73
2022-12-29T20:11:50.185Z,28.13
2022-12-29T20:14:34.186Z,28.57
2022-12-29T20:17:32.577Z,28.53
2022-12-29T20:20:21.785Z,33.37
2022-12-29T20:23:05.666Z,31.67
2022-12-29T20:25:57.272Z,33.10
2022-12-29T20:28:41.287Z,43.93
2022-12-29T20:31:26.884Z,44.40
2022-12-29T20:34:10.895Z,31.17
2022-12-29T20:36:54.805Z,32.03
2022-12-29T20:39:38.880Z,32.37
2022-12-29T20:42:24.103Z,26.40
2022-12-29T20:45:08.291Z,31.80
2022-12-29T20:47:52.187Z,25.00
2022-12-29T20:50:36.072Z,27.03
2022-12-29T20:53:19.861Z,27.17
2022-12-29T20:56:06.005Z,27.23
2022-12-29T20:59:25.757Z,26.33
2022-12-29T21:01:56.361Z,27.33
2022-12-29T21:05:13.431Z,28.93
2022-12-29T21:07:44.753Z,29.37
2022-12-29T21:10:28.651Z,29.00
2022-12-29T21:13:12.457Z,28.50
2022-12-29T21:15:59.756Z,29.63
2022-12-29T21:18:43.702Z,25.10
2022-12-29T21:21:28.266Z,31.93
2022-12-29T21:24:12.155Z,31.43
2022-12-29T21:26:55.916Z,28.73
2022-12-29T21:29:39.651Z,34.33
2022-12-29T21:32:24.801Z,29.07
2022-12-29T21:35:10.271Z,26.27
2022-12-29T21:37:54.816Z,25.97
2022-12-29T21:40:40.070Z,24.13
2022-12-29T21:43:23.916Z,27.57
2022-12-29T21:46:06.822Z,26.97
2022-12-29T21:48:51.979Z,22.20
2022-12-29T21:51:51.293Z,22.80
2022-12-29T21:54:52.818Z,20.43
2022-12-29T21:57:55.469Z,19.90
2022-12-29T22:00:56.654Z,25.37
2022-12-29T22:03:58.270Z,21.40
2022-12-29T22:07:00.769Z,24.20
2022-12-29T22:10:02.178Z,23.23
2022-12-29T22:13:03.181Z,20.63
2022-12-29T22:15:47.162Z,21.30
2022-12-29T22:18:31.153Z,20.33
2022-12-29T22:21:14.949Z,19.77
2022-12-29T22:24:00.748Z,24.47
2022-12-29T22:26:44.643Z,20.07
2022-12-29T22:29:28.575Z,24.23
2022-12-29T22:32:12.457Z,21.70
2022-12-29T22:34:56.804Z,23.03
2022-12-29T22:37:43.474Z,23.10
2022-12-29T22:40:28.714Z,25.40
2022-12-29T22:43:13.446Z,27.00
2022-12-29T22:46:02.480Z,25.13
2022-12-29T22:48:46.408Z,29.67
2022-12-29T22:51:30.261Z,29.63
2022-12-29T22:54:14.727Z,28.63
2022-12-29T22:57:00.002Z,31.30
2022-12-29T22:59:43.740Z,29.23
2022-12-29T23:02:28.368Z,31.70
2022-12-29T23:05:12.435Z,29.13
2022-12-29T23:07:56.323Z,27.57
2022-12-29T23:10:40.152Z,33.63
2022-12-29T23:13:25.372Z,31.63
2022-12-29T23:16:09.574Z,31.00
2022-12-29T23:18:54.128Z,34.03
2022-12-29T23:21:38.044Z,29.37
2022-12-29T23:24:21.924Z,27.80
2022-12-29T23:27:06.023Z,35.50
2022-12-29T23:29:51.447Z,32.33
2022-12-29T23:32:35.284Z,32.17
2022-12-29T23:35:19.100Z,31.70
2022-12-29T23:38:02.880Z,29.80
2022-12-29T23:40:46.766Z,29.53
2022-12-29T23:43:30.496Z,34.63
2022-12-29T23:46:17.641Z,39.97
2022-12-29T23:49:01.574Z,32.60
2022-12-29T23:51:45.471Z,30.63
2022-12-29T23:54:29.180Z,29.27
2022-12-29T23:57:12.905Z,30.13
2022-12-29T23:59:56.736Z,28.73
